Time;durP1;ratioP1;P1;durP2;ratioP2;P2;SDS_P1;SDS_P2;PMS_P1;PMS_P2;Temp;Humidity;BMP_temperature;BMP_pressure;BME280_temperature;BME280_humidity;BME280_pressure;Samples;Min_cycle;Max_cycle;Signal;HPM_P1;HPM_P2
2024/04/03 00:01:57;;;;;;;3.30;1.30;;;;;;;8.21;69.78;96344.65;105184;1257;98843;-81
2024/04/03 00:04:24;;;;;;;3.20;1.10;;;;;;;8.22;69.64;96339.38;105066;1257;99109;-81
2024/04/03 00:06:52;;;;;;;2.70;1.60;;;;;;;8.22;69.69;96339.34;105113;1264;97977;-81
2024/04/03 00:09:19;;;;;;;1.80;1.00;;;;;;;8.20;69.70;96342.27;105115;1257;97939;-81
2024/04/03 00:11:47;;;;;;;2.00;1.30;;;;;;;8.19;69.65;96344.81;105046;1254;97919;-81
2024/04/03 00:14:14;;;;;;;2.00;1.00;;;;;;;8.18;69.58;96341.77;105073;1257;100156;-80
2024/04/03 00:16:42;;;;;;;3.30;1.40;;;;;;;8.16;69.26;96344.05;105046;1254;97978;-81
2024/04/03 00:19:09;;;;;;;3.40;1.50;;;;;;;8.14;69.18;96347.41;105164;1257;98006;-81
2024/04/03 00:21:37;;;;;;;3.60;1.30;;;;;;;8.12;69.20;96345.19;105086;1254;97840;-81
2024/04/03 00:24:04;;;;;;;4.70;1.90;;;;;;;8.09;69.09;96346.20;105099;1257;98817;-81
2024/04/03 00:26:32;;;;;;;3.30;1.70;;;;;;;8.06;69.12;96347.78;105029;1256;99726;-81
2024/04/03 00:28:59;;;;;;;2.00;1.10;;;;;;;8.05;69.13;96353.66;105092;1256;97974;-79
2024/04/03 00:31:27;;;;;;;2.00;1.10;;;;;;;8.03;69.15;96352.35;105104;1257;98016;-75
2024/04/03 00:33:54;;;;;;;1.60;1.00;;;;;;;8.01;69.08;96352.62;105029;1257;97940;-72
2024/04/03 00:36:22;;;;;;;2.80;1.30;;;;;;;8.00;69.14;96354.02;105085;1254;97990;-72
2024/04/03 00:38:49;;;;;;;3.40;1.60;;;;;;;7.97;69.13;96348.06;105024;1256;98005;-73
2024/04/03 00:41:17;;;;;;;2.20;1.20;;;;;;;7.96;69.24;96352.52;105040;1257;97992;-74
2024/04/03 00:43:44;;;;;;;1.90;1.00;;;;;;;7.95;69.24;96352.44;105106;1257;98758;-74
2024/04/03 00:46:12;;;;;;;1.50;0.90;;;;;;;7.93;69.32;96351.05;105063;1254;97915;-72
2024/04/03 00:48:40;;;;;;;2.20;1.30;;;;;;;7.92;69.37;96350.96;105067;1257;101538;-72
2024/04/03 00:51:08;;;;;;;2.10;1.00;;;;;;;7.89;69.48;96350.03;105050;1257;99827;-81
2024/04/03 00:53:35;;;;;;;1.80;1.10;;;;;;;7.88;69.44;96348.10;105054;1256;97825;-81
2024/04/03 00:56:03;;;;;;;2.20;0.90;;;;;;;7.85;69.45;96346.14;105073;1256;97840;-81
2024/04/03 00:58:30;;;;;;;2.40;1.30;;;;;;;7.82;69.53;96343.41;104942;1267;103624;-81
2024/04/03 01:00:58;;;;;;;1.60;1.10;;;;;;;7.79;69.61;96346.16;104976;1255;101129;-80
2024/04/03 01:03:25;;;;;;;1.40;1.00;;;;;;;7.77;69.59;96344.43;104999;1256;99963;-79
2024/04/03 01:06:06;;;;;;;1.60;1.00;;;;;;;7.76;69.54;96343.70;105027;1254;97925;-80
2024/04/03 01:08:33;;;;;;;2.40;1.20;;;;;;;7.74;69.51;96341.85;105131;1256;99154;-79
2024/04/03 01:11:02;;;;;;;2.40;1.40;;;;;;;7.74;69.51;96341.52;105073;1256;103531;-79
2024/04/03 01:13:29;;;;;;;3.30;1.20;;;;;;;7.73;69.61;96347.09;105139;1257;101466;-80
2024/04/03 01:16:03;;;;;;;1.50;1.20;;;;;;;7.71;69.49;96346.77;105028;1257;97926;-81
2024/04/03 01:18:35;;;;;;;4.60;1.50;;;;;;;7.69;69.58;96347.40;104979;1269;98012;-81
2024/04/03 01:21:02;;;;;;;2.00;1.20;;;;;;;7.68;69.64;96350.05;105070;1252;99230;-80
2024/04/03 01:23:30;;;;;;;3.90;1.20;;;;;;;7.67;69.58;96354.06;104982;1256;102389;-80
2024/04/03 01:25:57;;;;;;;1.90;1.00;;;;;;;7.65;69.59;96355.90;105026;1257;101404;-81
2024/04/03 01:28:25;;;;;;;2.90;1.00;;;;;;;7.63;69.64;96362.27;105053;1256;99295;-79
2024/04/03 01:30:52;;;;;;;3.20;1.00;;;;;;;7.62;69.72;96363.84;105028;1275;97995;-74
2024/04/03 01:33:20;;;;;;;1.50;1.00;;;;;;;7.61;69.78;96362.76;105029;1256;98502;-74
2024/04/03 01:35:47;;;;;;;2.40;1.40;;;;;;;7.59;69.65;96365.62;105074;1256;103056;-74
2024/04/03 01:38:15;;;;;;;2.70;1.50;;;;;;;7.59;69.76;96362.06;105078;1254;97935;-73
2024/04/03 01:40:42;;;;;;;3.20;1.90;;;;;;;7.58;69.66;96360.00;104997;1257;98821;-73
2024/04/03 01:43:10;;;;;;;2.60;1.50;;;;;;;7.58;69.77;96359.31;104981;1256;99116;-74
2024/04/03 01:45:37;;;;;;;3.50;1.40;;;;;;;7.55;69.77;96362.79;105039;1256;98300;-72
2024/04/03 01:48:05;;;;;;;2.80;1.40;;;;;;;7.53;69.70;96364.38;105058;1256;99238;-72
2024/04/03 01:50:38;;;;;;;2.30;1.30;;;;;;;7.51;69.79;96366.36;105028;1267;101586;-72
2024/04/03 01:53:06;;;;;;;2.80;1.70;;;;;;;7.50;69.75;96366.08;105070;1257;98787;-72
2024/04/03 01:55:33;;;;;;;2.40;1.40;;;;;;;7.50;69.76;96365.08;104998;1257;97915;-72
2024/04/03 01:58:01;;;;;;;1.80;1.20;;;;;;;7.52;69.71;96364.21;105033;1255;98710;-72
2024/04/03 02:00:28;;;;;;;4.80;1.60;;;;;;;7.53;69.64;96363.08;105060;1254;98789;-80
2024/04/03 02:02:56;;;;;;;3.60;2.20;;;;;;;7.54;69.65;96360.11;105014;1264;101162;-80
2024/04/03 02:05:24;;;;;;;3.70;1.50;;;;;;;7.54;69.57;96356.23;105020;1257;99962;-71
2024/04/03 02:07:51;;;;;;;7.00;2.00;;;;;;;7.52;69.58;96356.19;105058;1256;99218;-80
2024/04/03 02:10:19;;;;;;;2.10;1.30;;;;;;;7.53;69.57;96353.47;105003;1257;98297;-80
2024/04/03 02:12:46;;;;;;;2.90;1.50;;;;;;;7.54;69.64;96356.31;105063;1254;103433;-81
2024/04/03 02:15:14;;;;;;;2.70;1.60;;;;;;;7.55;69.55;96354.36;105018;1256;97904;-78
2024/04/03 02:17:41;;;;;;;2.90;1.30;;;;;;;7.56;69.41;96352.80;105060;1257;99116;-80
2024/04/03 02:20:09;;;;;;;2.30;1.60;;;;;;;7.58;69.47;96349.73;105015;1256;97951;-80
2024/04/03 02:22:36;;;;;;;1.80;1.10;;;;;;;7.58;69.37;96351.13;105013;1257;99499;-80
2024/04/03 02:25:04;;;;;;;3.90;1.40;;;;;;;7.57;69.36;96357.83;105001;1257;103636;-81
2024/04/03 02:27:32;;;;;;;4.00;1.30;;;;;;;7.59;69.29;96352.40;105033;1256;100432;-72
2024/04/03 02:30:00;;;;;;;4.60;1.50;;;;;;;7.61;69.29;96349.60;104981;1266;98036;-72
2024/04/03 02:32:28;;;;;;;10.80;1.30;;;;;;;7.63;69.39;96347.65;105029;1268;97889;-73
2024/04/03 02:34:56;;;;;;;4.90;1.10;;;;;;;7.64;69.33;96348.67;105018;1257;97813;-75
2024/04/03 02:37:23;;;;;;;2.40;1.10;;;;;;;7.65;69.32;96342.30;105049;1274;102559;-75
2024/04/03 02:39:51;;;;;;;1.90;1.30;;;;;;;7.65;69.29;96340.15;105026;1256;100392;-74
2024/04/03 02:42:18;;;;;;;2.90;1.10;;;;;;;7.63;69.19;96337.73;105007;1254;98799;-74
2024/04/03 02:44:46;;;;;;;4.10;1.10;;;;;;;7.62;69.14;96338.10;104908;1258;97988;-75
2024/04/03 02:47:13;;;;;;;1.60;1.10;;;;;;;7.60;69.18;96340.81;105060;1256;98387;-80
2024/04/03 02:49:41;;;;;;;2.80;1.50;;;;;;;7.58;69.14;96337.73;105001;1257;102607;-80
2024/04/03 02:52:08;;;;;;;2.90;1.10;;;;;;;7.57;69.12;96333.41;105008;1254;98913;-80
2024/04/03 02:54:36;;;;;;;3.40;1.10;;;;;;;7.56;69.13;96340.52;104960;1259;99151;-79
2024/04/03 02:57:03;;;;;;;2.20;1.00;;;;;;;7.54;69.13;96334.08;105017;1257;97958;-80
2024/04/03 02:59:32;;;;;;;3.30;1.60;;;;;;;7.54;69.09;96332.67;104980;1256;98354;-80
2024/04/03 03:01:59;;;;;;;2.10;1.20;;;;;;;7.55;69.09;96332.96;105046;1256;102623;-80
2024/04/03 03:04:27;;;;;;;3.40;1.20;;;;;;;7.54;69.08;96328.59;105006;1254;97967;-80
2024/04/03 03:06:54;;;;;;;1.30;1.10;;;;;;;7.52;69.06;96328.68;105024;1267;98027;-80
2024/04/03 03:09:22;;;;;;;1.90;1.10;;;;;;;7.50;69.08;96330.96;105057;1256;98834;-80
2024/04/03 03:11:50;;;;;;;5.10;1.30;;;;;;;7.48;69.10;96331.61;105129;1257;98304;-81
2024/04/03 03:14:17;;;;;;;3.40;1.30;;;;;;;7.47;68.99;96328.74;105091;1257;97902;-80
2024/04/03 03:16:45;;;;;;;3.30;1.20;;;;;;;7.46;69.03;96331.14;105045;1254;99120;-80
2024/04/03 03:19:12;;;;;;;3.90;1.10;;;;;;;7.45;69.03;96326.64;105063;1257;98057;-80
2024/04/03 03:21:40;;;;;;;2.80;1.10;;;;;;;7.44;68.90;96323.92;105010;1256;97987;-79
2024/04/03 03:24:07;;;;;;;2.00;1.10;;;;;;;7.44;68.87;96327.14;105106;1257;97912;-74
2024/04/03 03:26:35;;;;;;;2.00;1.00;;;;;;;7.44;68.93;96325.15;105020;1254;103886;-74
2024/04/03 03:29:03;;;;;;;3.00;1.30;;;;;;;7.43;68.84;96327.19;105029;1257;100422;-74
2024/04/03 03:31:30;;;;;;;2.40;1.10;;;;;;;7.39;68.79;96331.63;104937;1257;107484;-72
2024/04/03 03:33:58;;;;;;;2.80;1.10;;;;;;;7.37;68.80;96330.16;105059;1256;98205;-72
2024/04/03 03:36:25;;;;;;;4.40;1.00;;;;;;;7.36;68.65;96333.03;105005;1267;97838;-73
2024/04/03 03:38:52;;;;;;;3.00;1.20;;;;;;;7.36;68.76;96332.94;105008;1256;99098;-72
2024/04/03 03:41:20;;;;;;;6.00;1.50;;;;;;;7.36;68.71;96327.46;105049;1256;99221;-81
2024/04/03 03:43:47;;;;;;;2.60;1.10;;;;;;;7.35;68.58;96323.09;105107;1257;99056;-81
2024/04/03 03:46:16;;;;;;;2.20;1.10;;;;;;;7.34;68.45;96322.89;105053;1256;97953;-72
2024/04/03 03:54:19;;;;;;;4.60;1.50;;;;;;;7.37;68.40;96324.63;104537;1254;101740;-72
2024/04/03 03:56:47;;;;;;;3.60;1.30;;;;;;;7.37;68.30;96325.52;104976;1258;97842;-72
2024/04/03 03:59:14;;;;;;;2.50;1.20;;;;;;;7.35;68.26;96321.64;105058;1257;97883;-72
2024/04/03 04:01:42;;;;;;;5.30;1.00;;;;;;;7.35;68.28;96323.00;105096;1257;98378;-74
2024/04/03 04:04:10;;;;;;;2.20;1.20;;;;;;;7.33;68.37;96323.17;105065;1257;102716;-73
2024/04/03 04:06:37;;;;;;;3.80;1.30;;;;;;;7.33;68.32;96324.33;105028;1257;101214;-74
2024/04/03 04:09:05;;;;;;;4.70;1.20;;;;;;;7.33;68.26;96326.48;105085;1254;99053;-72
2024/04/03 04:11:32;;;;;;;2.40;1.20;;;;;;;7.33;68.31;96326.98;104990;1256;97980;-72
2024/04/03 04:14:00;;;;;;;2.60;1.20;;;;;;;7.34;68.40;96322.77;105140;1254;97878;-72
2024/04/03 04:16:28;;;;;;;1.50;1.00;;;;;;;7.34;68.24;96322.71;105017;1266;103626;-72
2024/04/03 04:18:55;;;;;;;4.60;1.30;;;;;;;7.35;68.29;96330.68;105067;1256;101449;-72
2024/04/03 04:21:23;;;;;;;4.10;1.50;;;;;;;7.34;68.30;96327.55;105017;1257;97986;-81
2024/04/03 04:23:50;;;;;;;3.00;1.30;;;;;;;7.33;68.28;96325.73;105007;1267;97922;-81
2024/04/03 04:26:18;;;;;;;2.00;1.20;;;;;;;7.34;68.37;96327.55;105034;1257;99205;-81
2024/04/03 04:28:45;;;;;;;4.70;1.40;;;;;;;7.34;68.09;96330.39;105083;1256;98404;-80
2024/04/03 04:31:13;;;;;;;2.60;1.00;;;;;;;7.35;68.26;96335.84;105055;1256;97892;-81
2024/04/03 04:33:40;;;;;;;4.60;1.30;;;;;;;7.36;68.25;96344.85;104941;1256;98384;-80
2024/04/03 04:36:08;;;;;;;3.60;1.10;;;;;;;7.37;68.15;96345.36;105023;1256;97902;-81
2024/04/03 04:38:36;;;;;;;2.70;1.30;;;;;;;7.39;68.16;96343.44;105026;1254;97919;-80
2024/04/03 04:41:04;;;;;;;1.80;1.00;;;;;;;7.43;68.25;96347.96;105043;1256;97919;-72
2024/04/03 04:43:32;;;;;;;2.80;1.10;;;;;;;7.47;68.19;96351.50;105009;1254;100100;-72
2024/04/03 04:46:02;;;;;;;2.30;1.00;;;;;;;7.50;68.22;96352.52;105000;1269;100158;-81
2024/04/03 04:48:31;;;;;;;2.60;0.80;;;;;;;7.55;68.16;96349.90;105053;1269;98021;-81
2024/04/03 04:51:04;;;;;;;4.20;1.60;;;;;;;7.59;68.05;96352.11;105040;1254;98329;-80
2024/04/03 04:53:31;;;;;;;2.10;1.10;;;;;;;7.61;67.89;96351.96;105082;1256;102817;-80
2024/04/03 04:56:02;;;;;;;5.60;1.50;;;;;;;7.61;67.81;96349.27;105020;1257;101404;-80
2024/04/03 04:58:30;;;;;;;4.80;1.50;;;;;;;7.61;67.76;96345.89;104979;1266;99944;-80
2024/04/03 05:01:02;;;;;;;2.20;1.40;;;;;;;7.61;67.83;96351.31;105016;1256;97975;-81
2024/04/03 05:03:30;;;;;;;5.60;1.40;;;;;;;7.61;67.90;96354.75;105010;1257;98847;-80
2024/04/03 05:05:58;;;;;;;3.00;1.10;;;;;;;7.62;67.99;96353.65;105063;1256;103771;-80
2024/04/03 05:08:27;;;;;;;2.90;1.30;;;;;;;7.63;67.88;96352.07;105037;1261;100384;-81
2024/04/03 05:10:56;;;;;;;6.30;1.50;;;;;;;7.64;67.81;96350.73;105047;1257;100340;-80
2024/04/03 05:13:26;;;;;;;2.50;1.30;;;;;;;7.65;67.87;96355.08;105048;1254;98054;-81
2024/04/03 05:15:53;;;;;;;3.10;1.30;;;;;;;7.66;67.92;96358.79;105154;1254;99261;-81
2024/04/03 05:18:21;;;;;;;4.30;1.90;;;;;;;7.68;67.98;96353.65;105076;1255;103581;-80
2024/04/03 05:20:48;;;;;;;2.70;1.10;;;;;;;7.68;67.87;96355.96;105009;1257;100495;-79
2024/04/03 05:23:16;;;;;;;1.60;1.10;;;;;;;7.68;67.82;96355.59;105040;1256;99632;-81
2024/04/03 05:25:44;;;;;;;5.00;1.50;;;;;;;7.70;67.75;96354.67;105033;1256;98088;-80
2024/04/03 05:28:11;;;;;;;5.60;1.30;;;;;;;7.72;67.91;96366.30;105036;1259;98492;-81
2024/04/03 05:30:39;;;;;;;2.40;1.40;;;;;;;7.76;67.75;96370.81;105057;1256;97833;-80
2024/04/03 05:33:06;;;;;;;5.60;1.60;;;;;;;7.79;67.67;96370.02;105043;1257;100227;-81
2024/04/03 05:35:34;;;;;;;3.10;1.70;;;;;;;7.82;67.54;96372.59;105020;1256;98723;-81
2024/04/03 05:38:02;;;;;;;4.50;1.40;;;;;;;7.87;67.44;96372.74;105023;1257;98706;-81
2024/04/03 05:40:30;;;;;;;7.10;1.50;;;;;;;7.91;67.38;96370.73;105157;1258;98357;-80
2024/04/03 05:42:57;;;;;;;3.80;1.30;;;;;;;7.97;67.50;96373.77;105050;1256;102839;-80
2024/04/03 05:45:24;;;;;;;3.80;1.20;;;;;;;8.04;67.48;96381.30;105083;1257;98728;-76
2024/04/03 05:47:52;;;;;;;5.90;1.70;;;;;;;8.10;67.19;96380.89;105213;1254;98808;-72
2024/04/03 05:50:20;;;;;;;6.60;1.50;;;;;;;8.16;67.12;96377.71;105118;1257;97998;-72
2024/04/03 05:52:47;;;;;;;3.80;1.70;;;;;;;8.21;66.67;96384.27;105106;1254;98009;-72
2024/04/03 05:55:15;;;;;;;5.50;1.60;;;;;;;8.26;66.67;96380.50;105160;1257;97909;-73
2024/04/03 05:57:43;;;;;;;4.60;1.60;;;;;;;8.30;66.59;96380.44;105082;1266;97922;-73
2024/04/03 06:00:13;;;;;;;2.80;1.40;;;;;;;8.35;66.36;96378.27;105051;1257;100124;-72
2024/04/03 06:02:41;;;;;;;4.40;1.70;;;;;;;8.37;66.02;96376.49;105065;1254;99121;-73
2024/04/03 06:05:09;;;;;;;3.50;1.90;;;;;;;8.40;66.04;96373.08;105119;1257;98457;-74
2024/04/03 06:07:36;;;;;;;7.80;2.50;;;;;;;8.43;65.83;96374.17;104936;1266;102787;-73
2024/04/03 06:10:04;;;;;;;4.10;1.90;;;;;;;8.48;65.74;96379.36;104961;1260;97912;-73
2024/04/03 06:12:32;;;;;;;3.20;1.80;;;;;;;8.51;65.66;96377.80;104984;1266;99983;-73
2024/04/03 06:14:59;;;;;;;5.10;2.10;;;;;;;8.56;65.58;96380.69;105041;1256;97935;-73
2024/04/03 06:17:27;;;;;;;4.20;2.40;;;;;;;8.60;65.43;96380.96;105112;1257;98406;-81
2024/04/03 06:19:55;;;;;;;5.70;2.60;;;;;;;8.63;65.42;96383.01;105024;1256;97915;-81
2024/04/03 06:22:22;;;;;;;3.80;1.90;;;;;;;8.66;65.63;96381.33;105032;1269;101462;-81
2024/04/03 06:24:50;;;;;;;3.90;1.60;;;;;;;8.70;65.31;96387.06;105024;1258;99256;-81
2024/04/03 06:27:18;;;;;;;3.20;1.40;;;;;;;8.73;65.08;96386.46;104998;1256;99323;-81
2024/04/03 06:29:45;;;;;;;4.30;1.50;;;;;;;8.77;65.05;96387.87;105129;1256;99890;-81
2024/04/03 06:32:13;;;;;;;5.20;1.70;;;;;;;8.80;65.15;96392.98;105110;1256;103744;-81
2024/04/03 06:34:41;;;;;;;7.40;2.70;;;;;;;8.83;64.90;96394.41;105041;1261;100691;-81
2024/04/03 06:37:08;;;;;;;5.90;2.20;;;;;;;8.87;64.85;96396.35;105066;1256;99829;-81
2024/04/03 06:39:36;;;;;;;4.70;1.90;;;;;;;8.90;64.72;96397.85;104823;1259;99344;-79
2024/04/03 06:42:03;;;;;;;7.40;2.50;;;;;;;8.94;64.61;96403.05;105036;1256;99221;-81
2024/04/03 06:44:32;;;;;;;6.00;2.00;;;;;;;8.96;64.64;96405.88;105059;1266;104938;-82
2024/04/03 06:47:01;;;;;;;5.20;2.00;;;;;;;8.99;64.46;96406.27;105057;1257;100464;-75
2024/04/03 06:49:29;;;;;;;3.90;1.70;;;;;;;9.00;64.30;96406.85;105038;1268;100210;-75
2024/04/03 06:51:57;;;;;;;3.60;1.60;;;;;;;9.02;64.44;96406.73;105091;1256;99257;-74
2024/04/03 06:54:24;;;;;;;7.20;2.00;;;;;;;9.04;64.31;96408.42;105029;1260;99761;-73
2024/04/03 06:56:52;;;;;;;3.10;1.80;;;;;;;9.06;64.29;96418.52;105053;1267;99195;-81
2024/04/03 06:59:19;;;;;;;5.10;1.60;;;;;;;9.07;64.08;96420.54;105031;1267;99266;-82
2024/04/03 07:01:47;;;;;;;5.60;1.40;;;;;;;9.04;63.87;96414.66;105008;1266;99251;-80
2024/04/03 07:04:14;;;;;;;5.70;1.80;;;;;;;9.02;63.62;96417.80;104975;1267;99872;-82
2024/04/03 07:06:42;;;;;;;5.10;1.80;;;;;;;9.02;63.51;96413.38;105106;1257;99259;-80
2024/04/03 07:09:09;;;;;;;6.20;1.70;;;;;;;9.03;63.75;96415.60;105033;1266;99323;-81
2024/04/03 07:11:37;;;;;;;5.20;1.90;;;;;;;9.07;63.50;96420.97;105054;1257;99270;-81
2024/04/03 07:14:04;;;;;;;4.10;2.00;;;;;;;9.11;63.73;96423.61;105006;1257;99254;-73
2024/04/03 07:16:32;;;;;;;5.50;2.00;;;;;;;9.14;63.58;96422.64;105004;1257;99247;-75
2024/04/03 07:19:01;;;;;;;3.70;1.50;;;;;;;9.16;63.50;96426.37;105016;1257;99352;-75
2024/04/03 07:21:29;;;;;;;3.40;1.80;;;;;;;9.18;63.34;96424.84;105060;1257;103963;-75
2024/04/03 07:23:57;;;;;;;2.60;1.60;;;;;;;9.19;63.33;96423.53;105011;1257;101553;-74
2024/04/03 07:26:24;;;;;;;5.80;2.00;;;;;;;9.21;63.46;96425.21;105077;1266;99330;-75
2024/04/03 07:28:52;;;;;;;4.60;1.60;;;;;;;9.25;62.83;96427.25;105106;1266;99315;-75
2024/04/03 07:31:19;;;;;;;4.10;1.90;;;;;;;9.27;62.74;96423.00;105184;1265;99741;-75
2024/04/03 07:33:47;;;;;;;4.10;1.90;;;;;;;9.33;63.14;96425.65;105160;1257;99269;-75
2024/04/03 07:36:14;;;;;;;3.40;1.50;;;;;;;9.43;63.19;96420.16;105219;1261;99330;-75
2024/04/03 07:38:42;;;;;;;5.70;1.80;;;;;;;9.62;63.01;96423.43;105143;1256;99266;-75
2024/04/03 07:41:09;;;;;;;2.90;1.40;;;;;;;9.82;62.52;96425.08;105108;1254;100647;-75
2024/04/03 07:43:37;;;;;;;4.60;1.80;;;;;;;10.03;62.63;96422.06;105049;1258;99228;-75
2024/04/03 07:46:04;;;;;;;7.60;1.60;;;;;;;10.38;62.24;96414.05;105060;1267;99243;-73
2024/04/03 07:48:32;;;;;;;4.00;1.20;;;;;;;10.62;61.49;96414.05;105019;1256;100419;-73
2024/04/03 07:51:01;;;;;;;4.10;1.50;;;;;;;10.84;61.00;96412.83;105018;1258;99336;-77
2024/04/03 07:53:28;;;;;;;4.60;1.70;;;;;;;11.06;59.94;96415.34;105063;1256;99230;-82
2024/04/03 07:55:56;;;;;;;4.30;1.30;;;;;;;11.29;59.89;96413.96;105039;1266;99393;-81
2024/04/03 07:58:23;;;;;;;5.00;1.50;;;;;;;11.40;59.45;96408.90;105027;1266;99255;-81
2024/04/03 08:01:01;;;;;;;4.20;1.50;;;;;;;11.41;59.51;96407.89;105111;1257;99313;-81
2024/04/03 08:03:29;;;;;;;3.90;1.50;;;;;;;11.71;59.88;96405.28;105009;1266;99518;-82
2024/04/03 08:05:58;;;;;;;4.10;1.70;;;;;;;11.94;59.28;96402.69;105002;1257;99329;-81
2024/04/03 08:08:28;;;;;;;4.20;1.30;;;;;;;12.10;58.38;96406.04;105031;1256;100443;-81
2024/04/03 08:11:00;;;;;;;6.90;1.50;;;;;;;12.50;58.65;96404.29;104724;1262;113295;-81
2024/04/03 08:13:28;;;;;;;5.00;1.30;;;;;;;12.60;58.37;96403.70;105198;1266;101539;-80
2024/04/03 08:16:06;;;;;;;5.40;1.20;;;;;;;12.73;58.37;96407.95;105132;1257;100505;-81
2024/04/03 08:18:35;;;;;;;1.60;1.00;;;;;;;12.99;58.05;96416.38;105044;1264;99345;-81
2024/04/03 08:21:06;;;;;;;3.10;1.30;;;;;;;13.07;56.84;96414.31;105101;1257;99684;-81
2024/04/03 08:23:34;;;;;;;4.90;1.40;;;;;;;13.02;55.99;96405.95;105034;1266;105379;-80
2024/04/03 08:26:07;;;;;;;2.60;1.40;;;;;;;12.88;56.13;96411.34;104912;1257;101425;-80
2024/04/03 08:28:42;;;;;;;1.80;0.70;;;;;;;12.78;56.53;96418.79;105069;1257;99490;-80
2024/04/03 08:31:14;;;;;;;3.30;1.60;;;;;;;12.57;55.60;96421.31;105075;1268;99335;-80
2024/04/03 08:34:22;;;;;;;3.30;1.20;;;;;;;12.37;54.60;96418.17;105010;1257;99862;-82
2024/04/03 08:37:30;;;;;;;3.10;1.20;;;;;;;12.17;54.53;96428.02;105051;1254;104062;-81
2024/04/03 08:40:23;;;;;;;3.10;1.00;;;;;;;11.92;53.88;96422.29;105100;1256;101482;-80
2024/04/03 08:43:31;;;;;;;3.00;1.00;;;;;;;11.78;54.91;96417.16;105164;1270;100100;-81
2024/04/03 08:46:01;;;;;;;5.20;1.80;;;;;;;12.04;55.52;96414.52;105003;1270;99458;-81
2024/04/03 08:49:11;;;;;;;3.30;1.10;;;;;;;12.38;55.47;96409.70;105123;1266;100470;-77
2024/04/03 08:52:21;;;;;;;7.40;1.80;;;;;;;12.90;54.50;96411.82;105110;1257;104106;-81
2024/04/03 08:55:01;;;;;;;5.20;1.00;;;;;;;13.33;54.33;96411.79;107975;1253;100609;-80
2024/04/03 08:58:09;;;;;;;2.80;1.10;;;;;;;13.43;53.66;96411.48;106659;1254;100210;-80
2024/04/03 09:01:18;;;;;;;3.30;1.20;;;;;;;13.34;52.98;96406.08;105166;1257;99361;-76
2024/04/03 09:04:26;;;;;;;5.80;1.50;;;;;;;13.29;53.58;96407.54;105127;1258;100520;-76
2024/04/03 09:07:40;;;;;;;2.00;0.90;;;;;;;13.32;53.14;96404.41;105124;1254;104534;-79
2024/04/03 09:10:54;;;;;;;5.90;1.20;;;;;;;13.26;53.06;96399.30;105099;1266;101437;-82
2024/04/03 09:14:02;;;;;;;3.60;1.00;;;;;;;13.18;52.31;96401.44;105004;1268;99912;-84
2024/04/03 09:17:11;;;;;;;3.60;1.00;;;;;;;13.31;52.33;96398.45;104852;1266;99395;-76
2024/04/03 09:20:19;;;;;;;3.90;1.10;;;;;;;13.52;52.59;96400.52;105057;1257;99759;-76
2024/04/03 09:23:27;;;;;;;2.00;0.80;;;;;;;13.52;51.61;96401.08;104733;1275;103746;-78
2024/04/03 09:26:35;;;;;;;5.20;0.90;;;;;;;13.43;51.56;96397.65;105110;1265;101404;-77
2024/04/03 09:29:43;;;;;;;4.10;1.30;;;;;;;13.36;51.43;96398.52;105066;1257;99276;-82
2024/04/03 09:32:51;;;;;;;3.80;1.30;;;;;;;13.51;51.65;96393.02;105046;1258;99764;-80
2024/04/03 09:35:59;;;;;;;7.10;1.90;;;;;;;13.71;51.58;96389.58;104825;1266;99872;-81
2024/04/03 09:39:09;;;;;;;2.20;0.80;;;;;;;13.73;51.12;96393.28;105112;1266;105211;-81
2024/04/03 09:42:03;;;;;;;2.70;1.00;;;;;;;13.73;50.61;96394.20;105167;1255;101654;-82
2024/04/03 09:44:45;;;;;;;2.50;1.10;;;;;;;13.71;49.41;96394.66;104954;1258;99904;-81
2024/04/03 09:47:53;;;;;;;4.20;1.40;;;;;;;13.71;49.34;96395.16;104947;1266;100744;-79
2024/04/03 09:51:01;;;;;;;4.80;1.10;;;;;;;13.78;49.02;96385.34;104893;1257;99766;-81
2024/04/03 09:54:10;;;;;;;2.30;0.80;;;;;;;13.76;47.99;96383.98;104301;1266;105057;-81
2024/04/03 09:57:11;;;;;;;2.10;0.60;;;;;;;13.77;48.90;96381.98;104282;1267;101057;-80
2024/04/03 10:00:13;;;;;;;1.50;0.80;;;;;;;13.77;48.11;96385.72;104246;1266;100134;-80
2024/04/03 10:03:27;;;;;;;3.30;0.80;;;;;;;13.77;47.87;96382.63;104080;1264;99554;-82
2024/04/03 10:06:44;;;;;;;2.30;0.80;;;;;;;13.77;47.75;96385.71;104145;1268;99370;-80
2024/04/03 10:09:49;;;;;;;4.20;0.70;;;;;;;13.80;45.41;96380.16;103914;1277;105011;-80
2024/04/03 10:12:49;;;;;;;2.70;1.50;;;;;;;13.74;44.70;96389.38;103522;1274;101366;-86
2024/04/03 10:15:57;;;;;;;1.50;0.90;;;;;;;13.68;45.67;96387.64;103772;1274;99752;-83
2024/04/03 10:19:04;;;;;;;3.20;1.20;;;;;;;13.70;47.13;96380.50;103820;1273;100589;-83
2024/04/03 10:22:14;;;;;;;3.50;1.40;;;;;;;13.80;47.19;96382.07;103925;1274;99435;-82
2024/04/03 10:25:28;;;;;;;5.10;0.90;;;;;;;14.04;46.96;96385.60;103903;1274;104551;-83
2024/04/03 10:28:36;;;;;;;3.10;1.00;;;;;;;14.39;47.44;96379.77;103763;1274;100670;-76
2024/04/03 10:31:45;;;;;;;5.70;1.20;;;;;;;14.64;47.60;96372.95;104024;1281;100203;-75
2024/04/03 10:34:43;;;;;;;2.20;1.10;;;;;;;14.89;46.95;96371.58;104342;1261;99290;-76
2024/04/03 10:37:51;;;;;;;2.50;1.00;;;;;;;14.86;46.38;96377.48;104481;1266;100699;-76
2024/04/03 10:40:59;;;;;;;1.90;0.80;;;;;;;14.75;44.46;96375.48;104404;1277;103624;-77
2024/04/03 10:44:07;;;;;;;2.30;1.00;;;;;;;14.77;45.72;96372.48;104352;1266;100465;-76
2024/04/03 10:47:16;;;;;;;2.00;0.80;;;;;;;14.76;44.50;96373.85;104838;1257;99795;-83
2024/04/03 10:50:27;;;;;;;2.40;0.90;;;;;;;14.74;44.97;96371.77;104955;1257;99767;-87
2024/04/03 10:53:28;;;;;;;4.10;1.00;;;;;;;15.04;43.93;96375.95;105060;1257;100521;-83
2024/04/03 10:56:30;;;;;;;2.10;0.60;;;;;;;15.48;43.36;96365.43;104971;1254;104984;-83
2024/04/03 10:59:38;;;;;;;4.40;0.90;;;;;;;15.74;42.67;96367.48;104680;1270;100593;-79
2024/04/03 11:02:49;;;;;;;3.50;0.70;;;;;;;15.84;41.51;96364.60;101100;1266;5406240;-81
2024/04/03 11:05:57;;;;;;;1.90;0.70;;;;;;;15.90;41.55;96359.94;105103;1254;99788;-78
2024/04/03 11:09:04;;;;;;;1.60;0.70;;;;;;;16.22;40.73;96368.77;105112;1257;104969;-76
2024/04/03 11:12:13;;;;;;;3.50;0.80;;;;;;;16.62;40.81;96369.48;104961;1257;101500;-77
2024/04/03 11:15:01;;;;;;;2.30;0.60;;;;;;;16.68;37.96;96361.31;105097;1257;100220;-75
2024/04/03 11:18:09;;;;;;;5.40;0.90;;;;;;;16.53;39.28;96353.58;106003;1254;99180;-80
2024/04/03 11:21:17;;;;;;;2.90;1.20;;;;;;;16.78;40.21;96356.70;106474;1252;99695;-80
2024/04/03 11:24:17;;;;;;;2.30;0.80;;;;;;;17.32;39.36;96351.23;105099;1258;105486;-80
2024/04/03 11:27:25;;;;;;;3.30;0.70;;;;;;;17.47;38.91;96352.49;105056;1261;101679;-77
2024/04/03 11:30:33;;;;;;;2.80;0.90;;;;;;;17.56;39.25;96353.42;105073;1258;100609;-80
2024/04/03 11:33:41;;;;;;;2.60;0.70;;;;;;;17.52;38.29;96355.79;105006;1257;99362;-80
2024/04/03 11:36:39;;;;;;;1.80;1.30;;;;;;;17.31;38.03;96352.38;105073;1253;99718;-80
2024/04/03 11:39:47;;;;;;;3.70;1.00;;;;;;;17.15;36.56;96349.41;105008;1257;104928;-77
2024/04/03 11:42:47;;;;;;;2.20;0.60;;;;;;;17.06;37.30;96350.48;105110;1257;101318;-81
2024/04/03 11:45:30;;;;;;;2.30;0.70;;;;;;;17.00;36.48;96339.48;105089;1264;100124;-79
2024/04/03 11:48:31;;;;;;;2.80;1.00;;;;;;;16.86;37.32;96344.81;105046;1257;99877;-77
2024/04/03 11:51:39;;;;;;;2.20;0.70;;;;;;;16.86;37.08;96344.77;105058;1256;99750;-82
2024/04/03 11:54:49;;;;;;;2.60;0.70;;;;;;;17.05;37.55;96340.34;104969;1257;104926;-81
2024/04/03 11:57:40;;;;;;;3.10;1.20;;;;;;;17.11;37.81;96344.40;104456;1274;101544;-80
2024/04/03 12:00:31;;;;;;;2.60;1.10;;;;;;;17.18;37.32;96340.34;104450;1276;100160;-80
2024/04/03 12:03:39;;;;;;;4.20;1.20;;;;;;;17.32;36.67;96339.91;104578;1263;99437;-77
2024/04/03 12:06:48;;;;;;;1.80;1.00;;;;;;;17.34;36.92;96346.98;104293;1281;100719;-77
2024/04/03 12:09:56;;;;;;;1.90;0.80;;;;;;;17.28;37.70;96348.59;104561;1260;105076;-76
2024/04/03 12:13:04;;;;;;;2.30;0.60;;;;;;;17.30;37.93;96350.27;104448;1273;101494;-76
2024/04/03 12:16:13;;;;;;;3.50;1.40;;;;;;;17.26;37.40;96347.56;104447;1267;99345;-83
2024/04/03 12:19:29;;;;;;;1.10;0.80;;;;;;;17.17;37.38;96351.64;104424;1283;99295;-86
2024/04/03 12:22:38;;;;;;;1.00;0.50;;;;;;;17.25;37.47;96356.30;104531;1273;99877;-81